Terminal Aerodrome Forecast
Issued by NWS

Home | Current Version | Previous Version | Text Only | Print | Product List | Glossary On
Versions: 1 2 3 4 5 6 7 8 9 10 11 12 13 14 15 16 17
000
FTUS41 KALY 220541
TAFPSF
TAF
KPSF 220541Z 2206/2306 26004KT P6SM VCSH OVC070
     FM221200 27008KT P6SM SCT070
     FM221400 28012G20KT P6SM SCT070
     FM221700 29016G28KT P6SM SCT060
     FM230200 29010G16KT P6SM SKC=

USA.gov is the U.S. government's official web portal to all federal, state and local government web resources and services.